This is the latest recevied weather packets stored in our database for station/object DL4MGC-10. If no packets are shown the sender has not sent any weather packets the latest 10 day(s).
| Time | Temp. | Humidity | Pressure | Rain* | Wind** | Luminosity | Snow |
|---|---|---|---|---|---|---|---|
| 1777883066 | 21.67° C | 54% | 1015 hPa | - | - | - | - |
| 1777882165 | 21.11° C | 51% | 1015 hPa | - | - | - | - |
| 1777881265 | 20° C | 56% | 1015.1 hPa | - | - | - | - |
| 1777880365 | 19.44° C | 54% | 1015.1 hPa | - | - | - | - |
| 1777879465 | 20° C | 54% | 1015 hPa | - | - | - | - |
| 1777878565 | 17.78° C | 58% | 1015.1 hPa | - | - | - | - |
| 1777877665 | 17.78° C | 58% | 1015 hPa | - | - | - | - |
| 1777876765 | 17.22° C | 60% | 1015.2 hPa | - | - | - | - |
| 1777875865 | 16.11° C | 65% | 1015.3 hPa | - | - | - | - |
| 1777874965 | 15° C | 66% | 1015.1 hPa | - | - | - | - |
| 1777874065 | 14.44° C | 69% | 1014.9 hPa | - | - | - | - |
| 1777873165 | 13.89° C | 72% | 1014.9 hPa | - | - | - | - |
| 1777872264 | 12.78° C | 74% | 1015.1 hPa | - | - | - | - |
| 1777871364 | 12.78° C | 74% | 1015.1 hPa | - | - | - | - |
| 1777870464 | 12.22° C | 76% | 1015.1 hPa | - | - | - | - |
| 1777869564 | 12.78° C | 74% | 1015.1 hPa | - | - | - | - |
| 1777868664 | 12.78° C | 73% | 1015.1 hPa | - | - | - | - |
| 1777867764 | 12.78° C | 73% | 1015.1 hPa | - | - | - | - |
| 1777866864 | 12.22° C | 73% | 1015 hPa | - | - | - | - |
| 1777865964 | 12.78° C | 73% | 1015 hPa | - | - | - | - |
| 1777865064 | 12.78° C | 73% | 1015 hPa | - | - | - | - |
| 1777864164 | 13.33° C | 70% | 1015.2 hPa | - | - | - | - |
| 1777863264 | 12.78° C | 72% | 1015.2 hPa | - | - | - | - |
| 1777862364 | 12.22° C | 74% | 1015.2 hPa | - | - | - | - |
| 1777861463 | 13.33° C | 72% | 1015.3 hPa | - | - | - | - |
* Rain since midnight (hover to see other rain measurements)
** Current wind speed in m/s (hover to see current wind gust speed)